Trenton, NJ

10:35 PM EST on January 26, 2015 (GMT -0500)
Morris Heights | Change Station
CLOSE
Current Station
Personal Weather Station
Location: Morrisville, PA
Elevation: 89 ft
Nearby Weather Stations
Active Advisory: Winter Storm Warning Active Notice: Public Information Statement

Elev 89 ft 40.22 °N, 74.78 °W | Updated 2 seconds ago

Overcast
Overcast
28.1 °F
Feels Like 22 °F
N
5.1
Wind Variable Wind from NE
Gusts 15.5 mph

Today
High -- | Low -- °F
--% Chance of Precip.
Yesterday
High -- | Low -- °F
Precip. -- in
7:13 AM 5:10 PM
Waxing Crescent, 49% visible
Pressure 29.71 in
Visibility 7.0 miles
Clouds Overcast 1800 ft
Windchill 22 °F
Dew Point 20 °F
Humidity 73%
Rainfall 0.00 in
Snow Depth Not available.
UV 0 out of 12
Pollen .10 out of 12
Air Quality Not available.
Flu Activity Not available.
METAR KTTN 270253Z 04014G22KT 7SM -SN OVC018 M03/M07 A2972 RMK AO2 PK WND 05027/0224 SLP060 P0000 60000 T10281067 58012

More Conditions Fewer Conditions

Pressure 29.71 in
Visibility 7.0 miles
Clouds Overcast 1800 ft
Windchill 22 °F
Dew Point 20 °F
Humidity 73%
Rainfall 0.00 in
Snow Depth Not available.
UV 0 out of 12
Pollen .10 out of 12
Air Quality Not available.
Flu Activity Not available.
METAR KTTN 270253Z 04014G22KT 7SM -SN OVC018 M03/M07 A2972 RMK AO2 PK WND 05027/0224 SLP060 P0000 60000 T10281067 58012

More Conditions Fewer Conditions

10-Day Weather Forecast

Almanac

Astronomy

Jan. 26, 2015 Rise Set
Actual Time
Civil Twilight
Nautical Twilight
Astronomical Twilight
Moon
Length of Visible Light
Length of Day
Tomorrow will be .
, % of the Moon is Illuminated

Today's Extremes

State Highs State Lows

Community

WunderPhotos

Upload Photos

1,790,502 photos uploaded!

WunderBlogs® & News

Nearby

Air Quality

  Air Quality AQ Index Pollutant
Not available.

Snow Depth

Station Depth Elevation

Earthquake Activity

City Distance Mag. Time & Date
Minimum magnitude displayed is 2.5.

Coastal Water Temperatures

Place Temperature

Nearby Weather Stations